Time;durP1;ratioP1;P1;durP2;ratioP2;P2;SDS_P1;SDS_P2;PMS_P1;PMS_P2;Temp;Humidity;BMP_temperature;BMP_pressure;BME280_temperature;BME280_humidity;BME280_pressure;Samples;Min_cycle;Max_cycle;Signal;HPM_P1;HPM_P2
2022/06/30 00:00:35;;;;;;;;;;;21.50;99.90;;;;;;5117129;28;20704;-77
2022/06/30 00:03:01;;;;;;;;;;;21.40;99.90;;;;;;5034996;28;1880742;-77
2022/06/30 00:05:27;;;;;;;;;;;21.40;99.90;;;;;;5114295;28;19926;-77
2022/06/30 00:07:52;;;;;;;;;;;21.30;99.90;;;;;;5113046;28;19924;-78
2022/06/30 00:10:18;;;;;;;;;;;21.20;99.90;;;;;;5096651;28;19920;-78
2022/06/30 00:12:44;;;;;;;;;;;21.20;99.90;;;;;;5113465;28;19920;-76
2022/06/30 00:15:09;;;;;;;;;;;21.20;99.90;;;;;;5096064;28;20381;-77
2022/06/30 00:17:35;;;;;;;;;;;21.10;99.90;;;;;;5115984;27;19963;-77
2022/06/30 00:20:01;;;;;;;;;;;21.10;99.90;;;;;;5125437;27;20058;-77
2022/06/30 00:22:26;;;;;;;;;;;21.00;99.90;;;;;;5111729;28;19997;-76
2022/06/30 00:24:52;;;;;;;;;;;21.00;99.90;;;;;;5117037;27;19972;-78
2022/06/30 00:27:18;;;;;;;;;;;20.90;99.90;;;;;;5114050;28;19946;-76
2022/06/30 00:29:43;;;;;;;;;;;20.80;99.90;;;;;;5117654;27;19930;-77
2022/06/30 00:32:10;;;;;;;;;;;20.80;99.90;;;;;;5121658;27;19923;-78
2022/06/30 00:34:35;;;;;;;;;;;20.70;99.90;;;;;;5099282;27;20014;-79
2022/06/30 00:37:01;;;;;;;;;;;20.60;99.90;;;;;;5132623;27;20006;-78
2022/06/30 00:39:27;;;;;;;;;;;20.50;99.90;;;;;;5133197;27;20316;-77
2022/06/30 00:41:52;;;;;;;;;;;20.50;99.90;;;;;;5115759;27;19971;-78
2022/06/30 00:44:18;;;;;;;;;;;20.40;99.90;;;;;;5119490;27;20344;-76
2022/06/30 00:46:44;;;;;;;;;;;20.40;99.90;;;;;;5112503;28;20006;-76
2022/06/30 00:49:09;;;;;;;;;;;20.30;99.90;;;;;;5107183;27;19923;-76
2022/06/30 00:51:35;;;;;;;;;;;20.20;99.90;;;;;;5103102;27;20034;-77
2022/06/30 00:54:02;;;;;;;;;;;20.20;99.90;;;;;;5112233;28;20384;-76
2022/06/30 00:56:29;;;;;;;;;;;20.20;99.90;;;;;;5112298;28;19920;-75
2022/06/30 00:59:00;;;;;;;;;;;20.10;99.90;;;;;;5112566;28;19927;-77
2022/06/30 01:01:26;;;;;;;;;;;20.10;99.90;;;;;;5100778;27;19928;-76
2022/06/30 01:03:53;;;;;;;;;;;20.00;99.90;;;;;;5132568;27;20375;-78
2022/06/30 01:06:20;;;;;;;;;;;20.00;99.90;;;;;;5131922;27;20325;-76
2022/06/30 01:08:45;;;;;;;;;;;19.90;99.90;;;;;;5112372;28;19920;-76
2022/06/30 01:13:55;;;;;;;;;;;19.80;99.90;;;;;;5119617;27;20288;-77
2022/06/30 01:16:22;;;;;;;;;;;19.70;99.90;;;;;;5131773;27;19923;-78
2022/06/30 01:18:48;;;;;;;;;;;19.70;99.90;;;;;;5094764;28;20284;-78
2022/06/30 01:21:13;;;;;;;;;;;19.70;99.90;;;;;;5111313;28;19924;-76
2022/06/30 01:23:39;;;;;;;;;;;19.60;99.90;;;;;;5109579;28;19927;-76
2022/06/30 01:26:05;;;;;;;;;;;19.50;99.90;;;;;;5111511;28;20388;-78
2022/06/30 01:28:30;;;;;;;;;;;19.50;99.90;;;;;;5077960;28;19955;-78
2022/06/30 01:30:56;;;;;;;;;;;19.50;99.90;;;;;;5112486;27;20392;-76
2022/06/30 01:33:22;;;;;;;;;;;19.50;99.90;;;;;;5111160;28;19920;-77
2022/06/30 01:35:54;;;;;;;;;;;19.50;99.90;;;;;;5119902;27;19920;-77
2022/06/30 01:38:20;;;;;;;;;;;19.40;99.90;;;;;;5130092;27;19930;-77
2022/06/30 01:40:46;;;;;;;;;;;19.40;99.90;;;;;;5111494;28;19923;-77
2022/06/30 01:43:13;;;;;;;;;;;19.40;99.90;;;;;;5111361;28;19944;-76
2022/06/30 01:45:40;;;;;;;;;;;19.30;99.90;;;;;;5124994;28;20411;-79
2022/06/30 01:48:05;;;;;;;;;;;19.30;99.90;;;;;;5110494;28;19924;-78
2022/06/30 01:50:31;;;;;;;;;;;19.20;99.90;;;;;;5109662;28;19920;-76
2022/06/30 01:52:57;;;;;;;;;;;19.10;99.90;;;;;;5110248;28;20409;-78
2022/06/30 01:55:23;;;;;;;;;;;19.00;99.90;;;;;;5111600;28;19992;-77
2022/06/30 01:57:49;;;;;;;;;;;19.00;99.90;;;;;;5111301;28;19924;-78
2022/06/30 02:00:16;;;;;;;;;;;19.00;99.90;;;;;;5111020;28;20288;-79
2022/06/30 02:02:45;;;;;;;;;;;18.90;99.90;;;;;;5110912;28;19979;-78
2022/06/30 02:05:11;;;;;;;;;;;18.90;99.90;;;;;;5110941;28;19926;-78
2022/06/30 02:07:39;;;;;;;;;;;18.90;99.90;;;;;;5118418;28;19927;-78
2022/06/30 02:10:09;;;;;;;;;;;18.80;99.90;;;;;;5131279;28;19944;-77
2022/06/30 02:12:47;;;;;;;;;;;18.80;99.90;;;;;;5108535;27;19922;-79
2022/06/30 02:15:14;;;;;;;;;;;18.80;99.90;;;;;;5095166;28;20409;-78
2022/06/30 02:17:39;;;;;;;;;;;18.80;99.90;;;;;;5131636;28;19923;-78
2022/06/30 02:20:07;;;;;;;;;;;18.70;99.90;;;;;;5131199;28;19972;-79
2022/06/30 02:22:33;;;;;;;;;;;18.70;99.90;;;;;;5130747;28;19931;-78
2022/06/30 02:24:58;;;;;;;;;;;18.70;99.90;;;;;;5110572;28;19920;-75
2022/06/30 02:27:24;;;;;;;;;;;18.70;99.90;;;;;;5119078;28;19919;-76
2022/06/30 02:29:51;;;;;;;;;;;18.70;99.90;;;;;;5117976;28;19931;-77
2022/06/30 02:32:17;;;;;;;;;;;18.70;99.90;;;;;;5123883;28;19919;-78
2022/06/30 02:34:43;;;;;;;;;;;18.60;99.90;;;;;;5123231;28;19923;-79
2022/06/30 02:37:09;;;;;;;;;;;18.60;99.90;;;;;;5130391;28;20010;-77
2022/06/30 02:39:34;;;;;;;;;;;18.60;99.90;;;;;;5131311;28;19920;-77
2022/06/30 02:42:00;;;;;;;;;;;18.50;99.90;;;;;;5116193;28;19931;-77
2022/06/30 02:44:26;;;;;;;;;;;18.50;99.90;;;;;;5128167;27;19920;-76
2022/06/30 02:46:51;;;;;;;;;;;18.50;99.90;;;;;;5118062;27;19923;-77
2022/06/30 02:49:18;;;;;;;;;;;18.50;99.90;;;;;;5118858;27;19924;-78
2022/06/30 02:51:43;;;;;;;;;;;18.40;99.90;;;;;;5106885;27;19945;-79
2022/06/30 02:54:09;;;;;;;;;;;18.40;99.90;;;;;;5114667;28;20501;-77
2022/06/30 02:56:34;;;;;;;;;;;18.30;99.90;;;;;;5133667;27;19920;-77
2022/06/30 02:59:00;;;;;;;;;;;18.30;99.90;;;;;;5123105;27;19931;-75
2022/06/30 03:01:25;;;;;;;;;;;18.20;99.90;;;;;;5131716;27;19977;-77
2022/06/30 03:03:51;;;;;;;;;;;18.20;99.90;;;;;;5123287;27;19932;-76
2022/06/30 03:06:17;;;;;;;;;;;18.20;99.90;;;;;;5121096;27;19931;-77
2022/06/30 03:08:42;;;;;;;;;;;18.20;99.90;;;;;;5133896;27;20060;-75
2022/06/30 03:11:08;;;;;;;;;;;18.10;99.90;;;;;;5133762;27;19923;-76
2022/06/30 03:13:33;;;;;;;;;;;18.10;99.90;;;;;;5133627;27;20261;-76
2022/06/30 03:16:01;;;;;;;;;;;18.10;99.90;;;;;;5116645;27;19920;-76
2022/06/30 03:18:28;;;;;;;;;;;18.10;99.90;;;;;;5097681;28;20410;-76
2022/06/30 03:20:53;;;;;;;;;;;18.00;99.90;;;;;;5125748;27;19920;-77
2022/06/30 03:23:19;;;;;;;;;;;18.00;99.90;;;;;;5103435;27;20389;-76
2022/06/30 03:25:44;;;;;;;;;;;18.00;99.90;;;;;;5098126;28;20359;-77
2022/06/30 03:28:10;;;;;;;;;;;18.00;99.90;;;;;;5113618;28;19924;-77
2022/06/30 03:30:36;;;;;;;;;;;18.00;99.90;;;;;;5096691;28;19963;-78
2022/06/30 03:33:01;;;;;;;;;;;17.90;99.90;;;;;;5113781;28;19920;-75
2022/06/30 03:35:29;;;;;;;;;;;17.80;99.90;;;;;;5096902;28;20013;-77
2022/06/30 03:37:55;;;;;;;;;;;17.80;99.90;;;;;;5093290;27;19927;-77
2022/06/30 03:40:20;;;;;;;;;;;17.80;99.90;;;;;;5099513;27;19927;-79
2022/06/30 03:42:46;;;;;;;;;;;17.70;99.90;;;;;;5104608;28;19970;-76
2022/06/30 03:45:11;;;;;;;;;;;17.70;99.90;;;;;;5127020;27;19919;-77
2022/06/30 03:47:37;;;;;;;;;;;17.70;99.90;;;;;;5113219;28;19973;-77
2022/06/30 03:50:03;;;;;;;;;;;17.70;99.90;;;;;;5112739;28;19998;-77
2022/06/30 03:52:28;;;;;;;;;;;17.70;99.90;;;;;;5112696;28;19920;-77
2022/06/30 03:54:54;;;;;;;;;;;17.70;99.90;;;;;;5101013;27;19964;-79
2022/06/30 03:57:19;;;;;;;;;;;17.60;99.90;;;;;;5105059;28;19926;-78
2022/06/30 03:59:45;;;;;;;;;;;17.70;99.90;;;;;;5096397;28;19979;-79
2022/06/30 04:02:11;;;;;;;;;;;17.70;99.90;;;;;;5121254;27;20395;-78
2022/06/30 04:04:36;;;;;;;;;;;17.70;99.90;;;;;;5116694;27;19923;-77
2022/06/30 04:07:02;;;;;;;;;;;17.70;99.90;;;;;;5133065;27;19919;-77
2022/06/30 04:09:27;;;;;;;;;;;17.70;99.90;;;;;;5119651;27;20241;-77
2022/06/30 04:11:53;;;;;;;;;;;17.70;99.90;;;;;;5120396;27;19975;-77
2022/06/30 04:14:18;;;;;;;;;;;17.70;99.90;;;;;;5133487;27;20406;-78
2022/06/30 04:16:50;;;;;;;;;;;17.70;99.90;;;;;;5117358;27;19931;-78
2022/06/30 04:19:15;;;;;;;;;;;17.70;99.90;;;;;;5133720;27;20279;-78
2022/06/30 04:21:41;;;;;;;;;;;17.70;99.90;;;;;;5097184;28;19927;-78
2022/06/30 04:24:07;;;;;;;;;;;17.80;99.90;;;;;;5112740;28;20011;-76
2022/06/30 04:26:33;;;;;;;;;;;17.80;99.90;;;;;;5112559;28;19927;-78
2022/06/30 04:28:58;;;;;;;;;;;17.80;99.90;;;;;;5113001;28;20007;-77
2022/06/30 04:34:11;;;;;;;;;;;18.00;99.90;;;;;;5133867;27;19942;-79
2022/06/30 04:36:37;;;;;;;;;;;18.00;99.90;;;;;;5114155;27;19924;-78
2022/06/30 04:39:02;;;;;;;;;;;18.10;99.90;;;;;;5112911;28;19919;-77
2022/06/30 04:41:28;;;;;;;;;;;18.10;99.90;;;;;;5113196;27;19966;-77
2022/06/30 04:43:55;;;;;;;;;;;18.20;99.90;;;;;;5132212;27;19929;-78
2022/06/30 04:46:20;;;;;;;;;;;18.20;99.90;;;;;;5132791;27;20291;-77
2022/06/30 04:48:46;;;;;;;;;;;18.20;99.90;;;;;;5123253;27;20010;-76
2022/06/30 04:51:12;;;;;;;;;;;18.30;99.90;;;;;;5114262;28;19982;-77
2022/06/30 04:53:37;;;;;;;;;;;18.40;99.90;;;;;;5111737;28;20437;-77
2022/06/30 04:56:03;;;;;;;;;;;18.40;99.90;;;;;;5112126;28;19920;-78
2022/06/30 04:58:29;;;;;;;;;;;18.50;99.90;;;;;;5118399;27;19919;-78
2022/06/30 05:00:54;;;;;;;;;;;18.60;99.90;;;;;;5132671;27;19923;-76
2022/06/30 05:03:20;;;;;;;;;;;18.60;99.90;;;;;;5112239;27;19937;-76
2022/06/30 05:05:45;;;;;;;;;;;18.70;99.90;;;;;;5112753;28;20329;-77
2022/06/30 05:08:11;;;;;;;;;;;18.80;99.90;;;;;;5081635;28;19920;-76
2022/06/30 05:10:38;;;;;;;;;;;18.90;99.90;;;;;;5102764;28;19919;-78
2022/06/30 05:13:07;;;;;;;;;;;19.00;99.90;;;;;;5111841;28;19927;-77
2022/06/30 05:15:33;;;;;;;;;;;19.00;99.90;;;;;;5122536;27;20376;-78
2022/06/30 05:17:59;;;;;;;;;;;19.10;99.90;;;;;;5130930;27;19926;-79
2022/06/30 05:20:25;;;;;;;;;;;19.10;99.90;;;;;;5123344;27;19932;-77
2022/06/30 05:22:50;;;;;;;;;;;19.10;99.90;;;;;;5098018;28;19981;-76
2022/06/30 05:28:00;;;;;;;;;;;19.30;99.90;;;;;;5111645;28;19928;-79
2022/06/30 05:30:26;;;;;;;;;;;19.30;99.90;;;;;;5111442;28;20412;-78
2022/06/30 05:33:00;;;;;;;;;;;19.40;99.90;;;;;;5114108;27;19928;-78
2022/06/30 05:35:26;;;;;;;;;;;19.50;99.90;;;;;;5107186;28;19919;-77
2022/06/30 05:37:52;;;;;;;;;;;19.50;99.90;;;;;;5094033;28;19930;-78
2022/06/30 05:40:17;;;;;;;;;;;19.60;99.90;;;;;;5116857;28;19926;-77
2022/06/30 05:42:43;;;;;;;;;;;19.70;99.90;;;;;;5133223;27;20408;-76
2022/06/30 05:45:10;;;;;;;;;;;19.70;99.90;;;;;;5118101;28;19919;-77
2022/06/30 05:47:50;;;;;;;;;;;19.80;99.90;;;;;;5131906;28;19968;-78
2022/06/30 05:50:22;;;;;;;;;;;19.80;99.90;;;;;;5111268;28;19926;-76
2022/06/30 05:52:49;;;;;;;;;;;19.90;99.90;;;;;;5111045;28;19924;-76
2022/06/30 05:55:14;;;;;;;;;;;19.90;99.90;;;;;;5111218;28;19927;-77
2022/06/30 05:57:52;;;;;;;;;;;20.00;99.90;;;;;;5111741;28;20043;-78
2022/06/30 06:00:19;;;;;;;;;;;20.00;99.90;;;;;;5110813;28;19923;-76
2022/06/30 06:02:45;;;;;;;;;;;20.00;99.90;;;;;;5093840;28;20006;-78
2022/06/30 06:05:11;;;;;;;;;;;20.10;99.90;;;;;;5111204;28;19970;-77
2022/06/30 06:07:36;;;;;;;;;;;20.20;99.90;;;;;;5107595;28;19920;-78
2022/06/30 06:10:02;;;;;;;;;;;20.30;99.90;;;;;;5132166;28;19931;-78
2022/06/30 06:12:28;;;;;;;;;;;20.30;99.90;;;;;;5105300;28;20284;-79
2022/06/30 06:14:54;;;;;;;;;;;20.40;99.90;;;;;;5114607;28;19923;-78
2022/06/30 06:17:19;;;;;;;;;;;20.50;99.90;;;;;;5114107;28;19919;-78
2022/06/30 06:19:45;;;;;;;;;;;20.60;99.90;;;;;;5130879;27;19930;-78
2022/06/30 06:22:11;;;;;;;;;;;20.60;99.90;;;;;;5115095;28;19967;-78
2022/06/30 06:24:36;;;;;;;;;;;20.60;99.90;;;;;;5097985;28;20335;-77
2022/06/30 06:27:02;;;;;;;;;;;20.60;99.90;;;;;;5098568;28;20006;-79
2022/06/30 06:29:28;;;;;;;;;;;20.70;99.90;;;;;;5115669;28;20377;-77
2022/06/30 06:31:53;;;;;;;;;;;20.80;99.90;;;;;;5097942;28;20287;-78
2022/06/30 06:34:19;;;;;;;;;;;20.80;99.90;;;;;;5115606;28;19945;-79
2022/06/30 06:36:44;;;;;;;;;;;20.90;99.90;;;;;;5119350;27;19960;-78
2022/06/30 06:39:10;;;;;;;;;;;21.10;99.90;;;;;;5135384;27;19927;-79
2022/06/30 06:41:35;;;;;;;;;;;21.20;99.90;;;;;;5130713;27;20318;-79
2022/06/30 06:44:01;;;;;;;;;;;21.30;99.90;;;;;;5114751;28;19926;-78
2022/06/30 06:46:27;;;;;;;;;;;21.40;99.90;;;;;;5097041;28;19973;-77
2022/06/30 06:48:54;;;;;;;;;;;21.50;99.90;;;;;;5117534;27;20282;-77
2022/06/30 06:51:19;;;;;;;;;;;21.60;99.90;;;;;;5099809;28;19927;-76
2022/06/30 06:53:45;;;;;;;;;;;21.70;99.90;;;;;;5114405;28;19924;-78
2022/06/30 06:56:11;;;;;;;;;;;21.70;99.90;;;;;;5114343;28;19962;-80
2022/06/30 06:58:37;;;;;;;;;;;21.80;99.90;;;;;;5114230;28;19924;-79
2022/06/30 07:01:04;;;;;;;;;;;21.80;99.90;;;;;;5101428;28;19927;-78
2022/06/30 07:03:30;;;;;;;;;;;21.90;99.90;;;;;;5103476;27;19950;-78
2022/06/30 07:05:56;;;;;;;;;;;22.00;99.90;;;;;;5135342;27;19920;-78
2022/06/30 07:08:23;;;;;;;;;;;22.10;99.90;;;;;;5115621;27;20417;-77
2022/06/30 07:10:50;;;;;;;;;;;22.20;99.90;;;;;;5115484;27;19919;-79
2022/06/30 07:13:18;;;;;;;;;;;22.30;99.90;;;;;;5125242;27;19931;-78
2022/06/30 07:15:44;;;;;;;;;;;22.40;99.90;;;;;;5124988;27;20365;-79
2022/06/30 07:18:09;;;;;;;;;;;22.50;99.90;;;;;;5132463;27;19930;-77
2022/06/30 07:20:35;;;;;;;;;;;22.50;99.90;;;;;;5122171;27;20290;-75
2022/06/30 07:23:07;;;;;;;;;;;22.60;99.90;;;;;;5118193;27;19931;-80
2022/06/30 07:25:32;;;;;;;;;;;22.80;99.90;;;;;;5114241;27;20343;-78
2022/06/30 07:27:58;;;;;;;;;;;22.90;99.90;;;;;;5114595;28;19920;-78
2022/06/30 07:30:25;;;;;;;;;;;23.00;99.90;;;;;;5096794;28;19920;-79
2022/06/30 07:32:50;;;;;;;;;;;23.10;99.90;;;;;;5114046;27;19923;-78
2022/06/30 07:35:22;;;;;;;;;;;23.10;99.90;;;;;;5113325;28;19968;-80
2022/06/30 07:37:48;;;;;;;;;;;23.20;99.90;;;;;;5113853;28;20007;-78
2022/06/30 07:40:14;;;;;;;;;;;23.30;99.90;;;;;;5096896;28;19994;-78
2022/06/30 07:42:40;;;;;;;;;;;23.30;99.90;;;;;;5126734;27;19941;-78
2022/06/30 07:45:07;;;;;;;;;;;23.50;99.90;;;;;;5114523;27;20391;-78
2022/06/30 07:47:32;;;;;;;;;;;23.60;99.90;;;;;;5124582;27;19919;-78
2022/06/30 07:49:58;;;;;;;;;;;23.70;99.90;;;;;;5115985;27;19924;-78
2022/06/30 07:52:24;;;;;;;;;;;23.80;99.90;;;;;;5113500;28;20040;-78
2022/06/30 07:54:51;;;;;;;;;;;23.80;99.90;;;;;;5115959;27;20261;-76
2022/06/30 07:57:20;;;;;;;;;;;23.90;99.90;;;;;;5118156;28;20384;-77
2022/06/30 07:59:45;;;;;;;;;;;24.00;99.90;;;;;;5107385;27;19930;-77
2022/06/30 08:02:11;;;;;;;;;;;24.10;99.90;;;;;;5125170;27;19924;-76
2022/06/30 08:04:37;;;;;;;;;;;24.10;99.90;;;;;;5095932;28;19924;-77
2022/06/30 08:07:03;;;;;;;;;;;24.20;99.90;;;;;;5112469;28;19920;-74
2022/06/30 08:09:30;;;;;;;;;;;24.20;99.90;;;;;;5113016;28;19926;-79
2022/06/30 08:11:57;;;;;;;;;;;24.30;99.90;;;;;;5096410;27;19920;-79
2022/06/30 08:14:23;;;;;;;;;;;24.50;99.90;;;;;;5122307;27;19955;-78
2022/06/30 08:16:56;;;;;;;;;;;24.60;99.90;;;;;;5112859;28;19923;-77
2022/06/30 08:19:22;;;;;;;;;;;24.70;99.90;;;;;;5124689;27;20445;-79
2022/06/30 08:21:47;;;;;;;;;;;24.80;99.90;;;;;;5129716;27;19928;-79
2022/06/30 08:24:14;;;;;;;;;;;24.80;99.90;;;;;;5112952;28;20351;-77
2022/06/30 08:26:39;;;;;;;;;;;24.90;99.90;;;;;;5112585;28;19924;-78
2022/06/30 08:29:05;;;;;;;;;;;24.90;99.90;;;;;;5112793;28;20388;-79
2022/06/30 08:31:33;;;;;;;;;;;25.00;99.90;;;;;;5113290;28;19927;-77
2022/06/30 08:33:58;;;;;;;;;;;25.00;99.90;;;;;;5112547;28;20018;-77
2022/06/30 08:36:24;;;;;;;;;;;25.10;99.90;;;;;;5111560;28;19963;-78
2022/06/30 08:38:49;;;;;;;;;;;25.30;99.90;;;;;;5112574;28;19920;-78
2022/06/30 08:44:00;;;;;;;;;;;25.40;99.90;;;;;;5118140;27;19927;-77
2022/06/30 08:46:26;;;;;;;;;;;25.50;99.90;;;;;;5121262;27;19923;-77
2022/06/30 08:48:53;;;;;;;;;;;25.50;99.90;;;;;;5112598;28;19920;-77
2022/06/30 08:51:19;;;;;;;;;;;25.60;99.90;;;;;;5098831;28;20370;-76
2022/06/30 08:53:53;;;;;;;;;;;25.70;99.90;;;;;;5112065;28;19927;-77
2022/06/30 08:56:20;;;;;;;;;;;25.80;99.90;;;;;;5112422;27;19927;-77
2022/06/30 08:58:46;;;;;;;;;;;25.90;99.90;;;;;;5132812;27;20296;-79
2022/06/30 09:01:12;;;;;;;;;;;25.90;99.90;;;;;;5112669;27;19926;-79
2022/06/30 09:03:38;;;;;;;;;;;25.90;99.90;;;;;;5104593;28;19924;-79
2022/06/30 09:06:05;;;;;;;;;;;25.90;99.90;;;;;;5105842;28;19920;-77
2022/06/30 09:08:31;;;;;;;;;;;26.00;99.90;;;;;;5116005;27;19930;-78
2022/06/30 09:10:57;;;;;;;;;;;26.00;99.90;;;;;;5132416;27;19920;-77
2022/06/30 09:13:23;;;;;;;;;;;26.00;99.90;;;;;;5110455;28;19920;-80
2022/06/30 09:15:49;;;;;;;;;;;26.00;99.90;;;;;;5111793;28;19924;-79
2022/06/30 09:18:26;;;;;;;;;;;26.10;99.90;;;;;;5094943;28;19931;-78
2022/06/30 09:20:52;;;;;;;;;;;26.10;99.90;;;;;;5112237;28;19920;-77
2022/06/30 09:23:25;;;;;;;;;;;26.10;99.90;;;;;;5111923;28;19931;-77
2022/06/30 09:25:51;;;;;;;;;;;26.10;99.90;;;;;;5113125;28;19924;-78
2022/06/30 09:28:36;;;;;;;;;;;26.10;99.90;;;;;;5094612;28;19924;-77
2022/06/30 09:31:01;;;;;;;;;;;26.20;99.90;;;;;;5111923;28;19923;-76
2022/06/30 09:33:33;;;;;;;;;;;26.20;99.90;;;;;;5110738;28;19984;-79
2022/06/30 09:36:17;;;;;;;;;;;26.40;99.90;;;;;;5111753;28;20494;-77
2022/06/30 09:38:57;;;;;;;;;;;26.40;99.90;;;;;;5111041;28;19930;-77
2022/06/30 09:41:27;;;;;;;;;;;26.60;99.90;;;;;;5127070;27;20372;-77
2022/06/30 09:43:52;;;;;;;;;;;26.80;99.90;;;;;;5131295;27;20378;-78
2022/06/30 09:46:18;;;;;;;;;;;26.80;99.90;;;;;;5130526;27;19926;-78
2022/06/30 09:48:43;;;;;;;;;;;26.90;99.90;;;;;;5109750;28;20166;-78
2022/06/30 09:51:09;;;;;;;;;;;26.90;99.90;;;;;;5094693;28;19919;-77
2022/06/30 09:53:35;;;;;;;;;;;27.00;99.90;;;;;;5111113;28;19924;-77
2022/06/30 09:56:11;;;;;;;;;;;27.00;99.90;;;;;;5130021;27;20415;-78
2022/06/30 09:58:40;;;;;;;;;;;27.10;99.90;;;;;;5136133;27;19994;-78
2022/06/30 10:01:06;;;;;;;;;;;27.10;99.90;;;;;;5136510;27;19923;-77
2022/06/30 10:03:32;;;;;;;;;;;27.10;99.90;;;;;;5127149;27;19930;-77
2022/06/30 10:06:11;;;;;;;;;;;27.20;99.90;;;;;;5115310;28;20388;-77
2022/06/30 10:08:37;;;;;;;;;;;27.30;99.90;;;;;;5102450;28;19920;-80
2022/06/30 10:11:03;;;;;;;;;;;27.40;99.90;;;;;;5124231;27;19920;-78
2022/06/30 10:13:33;;;;;;;;;;;27.50;99.90;;;;;;5122161;27;20393;-77
2022/06/30 10:16:05;;;;;;;;;;;27.60;99.90;;;;;;5135577;27;19919;-78
2022/06/30 10:18:33;;;;;;;;;;;27.80;99.90;;;;;;5129023;27;19924;-77
2022/06/30 10:20:58;;;;;;;;;;;28.00;99.90;;;;;;5115293;27;20421;-79
2022/06/30 10:23:24;;;;;;;;;;;28.10;99.90;;;;;;5100783;28;19923;-76
2022/06/30 10:25:52;;;;;;;;;;;28.30;99.90;;;;;;5114724;28;19920;-78
2022/06/30 10:28:18;;;;;;;;;;;28.50;99.90;;;;;;5098439;28;19920;-78
2022/06/30 10:30:54;;;;;;;;;;;28.70;99.90;;;;;;5114608;28;19920;-77
2022/06/30 10:33:25;;;;;;;;;;;28.80;99.90;;;;;;5114860;28;19919;-78
2022/06/30 10:36:00;;;;;;;;;;;28.90;99.90;;;;;;5114413;28;20012;-77
2022/06/30 10:38:35;;;;;;;;;;;29.00;99.90;;;;;;5099667;27;19927;-78
2022/06/30 10:41:10;;;;;;;;;;;29.10;99.90;;;;;;5135222;27;20011;-78
2022/06/30 10:44:05;;;;;;;;;;;29.10;99.90;;;;;;5103421;27;19919;-78
2022/06/30 10:46:32;;;;;;;;;;;29.20;99.90;;;;;;5102680;27;19928;-79
2022/06/30 10:48:58;;;;;;;;;;;29.30;99.90;;;;;;5113177;28;19963;-77
2022/06/30 10:51:24;;;;;;;;;;;29.40;99.90;;;;;;5107593;27;19920;-78
2022/06/30 10:53:50;;;;;;;;;;;29.60;99.90;;;;;;5135038;27;19923;-78
2022/06/30 10:56:41;;;;;;;;;;;30.50;99.90;;;;;;5117660;27;19972;-77
2022/06/30 10:59:11;;;;;;;;;;;30.20;99.90;;;;;;5115710;28;20189;-78
2022/06/30 11:01:37;;;;;;;;;;;30.30;99.90;;;;;;5113727;28;19969;-78
2022/06/30 11:04:04;;;;;;;;;;;30.30;99.90;;;;;;5124971;27;19976;-78
2022/06/30 11:06:48;;;;;;;;;;;30.40;99.90;;;;;;5129587;27;19933;-78
2022/06/30 11:09:13;;;;;;;;;;;30.20;99.90;;;;;;5114584;28;20014;-79
2022/06/30 11:11:43;;;;;;;;;;;30.10;99.90;;;;;;5130144;27;20008;-78
2022/06/30 11:14:08;;;;;;;;;;;30.00;99.90;;;;;;5135116;27;19945;-78
2022/06/30 11:16:34;;;;;;;;;;;30.00;99.90;;;;;;5134294;27;20396;-78
2022/06/30 11:19:01;;;;;;;;;;;29.90;99.90;;;;;;5127914;27;19923;-77
2022/06/30 11:21:30;;;;;;;;;;;29.90;99.90;;;;;;5124981;27;20006;-78
2022/06/30 11:24:00;;;;;;;;;;;29.60;99.90;;;;;;5114548;28;19942;-78
2022/06/30 11:29:11;;;;;;;;;;;28.80;99.90;;;;;;5102039;28;19923;-77
2022/06/30 11:31:41;;;;;;;;;;;28.40;99.90;;;;;;5114901;28;19939;-77
2022/06/30 11:34:17;;;;;;;;;;;28.10;99.90;;;;;;5113994;28;19920;-78
2022/06/30 11:36:44;;;;;;;;;;;27.80;99.90;;;;;;5112990;28;19977;-78
2022/06/30 11:39:11;;;;;;;;;;;27.50;99.90;;;;;;5114217;28;19926;-78
2022/06/30 11:41:56;;;;;;;;;;;27.10;99.90;;;;;;5109859;27;19930;-79
2022/06/30 11:44:36;;;;;;;;;;;26.40;99.90;;;;;;5097704;28;20390;-79
2022/06/30 11:47:03;;;;;;;;;;;25.10;99.90;;;;;;5113758;28;19927;-77
2022/06/30 11:49:40;;;;;;;;;;;24.30;99.90;;;;;;5097227;28;20276;-79
2022/06/30 11:52:20;;;;;;;;;;;23.80;99.90;;;;;;5096398;28;19934;-76
2022/06/30 11:54:47;;;;;;;;;;;23.60;99.90;;;;;;5110286;28;19966;-78
2022/06/30 11:57:13;;;;;;;;;;;23.60;99.90;;;;;;5113518;28;20004;-77
2022/06/30 11:59:45;;;;;;;;;;;23.80;99.90;;;;;;5113166;28;19974;-77
2022/06/30 12:02:11;;;;;;;;;;;23.80;99.90;;;;;;5095536;28;20425;-78
2022/06/30 12:04:38;;;;;;;;;;;24.00;99.90;;;;;;5096457;28;19923;-78
2022/06/30 12:07:04;;;;;;;;;;;24.00;99.90;;;;;;5107332;27;19923;-78
2022/06/30 12:09:30;;;;;;;;;;;24.10;99.90;;;;;;5116487;27;19920;-77
2022/06/30 12:11:57;;;;;;;;;;;23.90;99.90;;;;;;5112835;28;20296;-78
2022/06/30 12:14:24;;;;;;;;;;;23.60;99.90;;;;;;5113575;28;19926;-77
2022/06/30 12:16:56;;;;;;;;;;;23.40;99.90;;;;;;5112399;28;20091;-77
2022/06/30 12:19:22;;;;;;;;;;;23.20;99.90;;;;;;5112478;28;20010;-77
2022/06/30 12:21:49;;;;;;;;;;;23.10;99.90;;;;;;5120465;27;19949;-77
2022/06/30 12:24:15;;;;;;;;;;;22.90;99.90;;;;;;5116827;27;19919;-76
2022/06/30 12:26:47;;;;;;;;;;;22.80;99.90;;;;;;5133403;27;19930;-76
2022/06/30 12:29:13;;;;;;;;;;;22.80;99.90;;;;;;5119561;27;19927;-76
2022/06/30 12:31:39;;;;;;;;;;;23.00;99.90;;;;;;5112230;28;19919;-76
2022/06/30 12:34:04;;;;;;;;;;;23.10;99.90;;;;;;5112884;28;20388;-76
2022/06/30 12:36:32;;;;;;;;;;;23.40;99.90;;;;;;5098547;27;19923;-77
2022/06/30 12:39:10;;;;;;;;;;;23.50;99.90;;;;;;5103912;28;19919;-76
2022/06/30 12:41:36;;;;;;;;;;;23.60;99.90;;;;;;5126359;27;19924;-76
2022/06/30 12:44:01;;;;;;;;;;;23.70;99.90;;;;;;5112347;28;19920;-76
2022/06/30 12:46:37;;;;;;;;;;;23.90;99.90;;;;;;5099304;27;19926;-75
2022/06/30 12:49:02;;;;;;;;;;;24.00;99.90;;;;;;5128707;27;19924;-75
2022/06/30 12:51:28;;;;;;;;;;;24.00;99.90;;;;;;5103483;28;19920;-76
2022/06/30 12:54:04;;;;;;;;;;;24.10;99.90;;;;;;5112438;28;19919;-75
2022/06/30 12:56:30;;;;;;;;;;;24.10;99.90;;;;;;5112269;28;19926;-75
2022/06/30 12:59:03;;;;;;;;;;;24.10;99.90;;;;;;5121961;27;19919;-75
2022/06/30 13:01:30;;;;;;;;;;;24.30;99.90;;;;;;5115241;27;20414;-76
2022/06/30 13:03:57;;;;;;;;;;;24.50;99.90;;;;;;5094663;28;20288;-75
2022/06/30 13:06:24;;;;;;;;;;;24.80;99.90;;;;;;5114116;27;19919;-75
2022/06/30 13:08:50;;;;;;;;;;;25.30;99.90;;;;;;5111638;28;19926;-76
2022/06/30 13:11:17;;;;;;;;;;;25.60;99.90;;;;;;5125757;27;19984;-76
2022/06/30 13:13:44;;;;;;;;;;;25.70;99.90;;;;;;5109319;28;19952;-76
2022/06/30 13:16:10;;;;;;;;;;;25.40;99.90;;;;;;5113696;28;19919;-76
2022/06/30 13:18:37;;;;;;;;;;;25.30;99.90;;;;;;5116882;27;19926;-76
2022/06/30 13:21:02;;;;;;;;;;;25.30;99.90;;;;;;5103647;28;19968;-76
2022/06/30 13:23:28;;;;;;;;;;;25.50;99.90;;;;;;5111846;28;19920;-76
2022/06/30 13:25:54;;;;;;;;;;;25.90;99.90;;;;;;5094797;28;19927;-76
2022/06/30 13:28:19;;;;;;;;;;;26.20;99.90;;;;;;5112558;28;20398;-76
2022/06/30 13:30:45;;;;;;;;;;;26.30;99.90;;;;;;5123683;27;19923;-75
2022/06/30 13:33:11;;;;;;;;;;;26.40;99.90;;;;;;5111550;28;19924;-76
2022/06/30 13:35:40;;;;;;;;;;;26.70;99.90;;;;;;5132054;27;20283;-75
2022/06/30 13:38:05;;;;;;;;;;;26.70;99.90;;;;;;5114745;28;19919;-76
2022/06/30 13:40:34;;;;;;;;;;;26.80;99.90;;;;;;5114783;27;20018;-76
2022/06/30 13:43:00;;;;;;;;;;;26.70;99.90;;;;;;5131261;27;20294;-75
2022/06/30 13:45:26;;;;;;;;;;;26.70;99.90;;;;;;5111312;28;19928;-76
2022/06/30 13:47:52;;;;;;;;;;;26.60;99.90;;;;;;5120457;27;19920;-75
2022/06/30 13:50:18;;;;;;;;;;;26.50;99.90;;;;;;5107629;28;19920;-76
2022/06/30 13:52:44;;;;;;;;;;;26.40;99.90;;;;;;5076836;28;20283;-75
2022/06/30 13:55:09;;;;;;;;;;;26.60;99.90;;;;;;5118477;28;19919;-77
2022/06/30 13:57:35;;;;;;;;;;;26.80;99.90;;;;;;5131982;28;20305;-76
2022/06/30 14:00:02;;;;;;;;;;;26.90;99.90;;;;;;5131639;28;20041;-76
2022/06/30 14:02:28;;;;;;;;;;;26.90;99.90;;;;;;5131638;28;19976;-77
2022/06/30 14:04:54;;;;;;;;;;;26.80;99.90;;;;;;5131566;28;19927;-77
2022/06/30 14:07:19;;;;;;;;;;;26.80;99.90;;;;;;5131852;28;19919;-77
2022/06/30 14:09:45;;;;;;;;;;;26.80;99.90;;;;;;5099467;28;19924;-76
2022/06/30 14:12:11;;;;;;;;;;;26.80;99.90;;;;;;5117223;28;20431;-77
2022/06/30 14:14:37;;;;;;;;;;;26.80;99.90;;;;;;5117605;28;19972;-77
2022/06/30 14:17:03;;;;;;;;;;;26.90;99.90;;;;;;5118594;28;20551;-77
2022/06/30 14:19:28;;;;;;;;;;;26.90;99.90;;;;;;5132186;28;19942;-77
2022/06/30 14:21:54;;;;;;;;;;;27.00;99.90;;;;;;5110855;28;19919;-77
2022/06/30 14:24:26;;;;;;;;;;;27.30;99.90;;;;;;5115554;28;19927;-76
2022/06/30 14:26:52;;;;;;;;;;;27.50;99.90;;;;;;5111971;28;19999;-75
2022/06/30 14:29:18;;;;;;;;;;;27.80;99.90;;;;;;5111444;28;19920;-76